Time;durP1;ratioP1;P1;durP2;ratioP2;P2;SDS_P1;SDS_P2;PMS_P1;PMS_P2;Temp;Humidity;BMP_temperature;BMP_pressure;BME280_temperature;BME280_humidity;BME280_pressure;Samples;Min_cycle;Max_cycle;Signal;HPM_P1;HPM_P2
2021/12/27 00:02:17;;;;;;;;;;;8.00;99.90;;;;;;7343671;19;115379;-86
2021/12/27 00:04:44;;;;;;;;;;;8.00;99.90;;;;;;7343177;19;109365;-86
2021/12/27 00:07:11;;;;;;;;;;;8.10;99.90;;;;;;7343556;19;111055;-85
2021/12/27 00:09:39;;;;;;;;;;;8.10;99.90;;;;;;7339241;19;112113;-87
2021/12/27 00:12:06;;;;;;;;;;;8.10;99.90;;;;;;7344027;19;109878;-87
2021/12/27 00:14:33;;;;;;;;;;;8.10;99.90;;;;;;7343484;19;111485;-87
2021/12/27 00:17:00;;;;;;;;;;;8.10;99.90;;;;;;7347694;19;112243;-87
2021/12/27 00:19:28;;;;;;;;;;;8.10;99.90;;;;;;7355860;19;109462;-87
2021/12/27 00:21:55;;;;;;;;;;;8.00;99.90;;;;;;7351263;19;110451;-87
2021/12/27 00:24:21;;;;;;;;;;;8.10;99.90;;;;;;7348589;19;109365;-86
2021/12/27 00:26:48;;;;;;;;;;;8.10;99.90;;;;;;7351004;19;113075;-85
2021/12/27 00:29:15;;;;;;;;;;;8.10;99.90;;;;;;7351539;19;115242;-87
2021/12/27 00:31:42;;;;;;;;;;;8.10;99.90;;;;;;7349776;19;109319;-86
2021/12/27 00:34:09;;;;;;;;;;;8.20;99.90;;;;;;7349616;19;109635;-86
2021/12/27 00:36:37;;;;;;;;;;;8.10;99.90;;;;;;7349979;19;111704;-86
2021/12/27 00:39:04;;;;;;;;;;;8.10;99.90;;;;;;7350767;19;109915;-86
2021/12/27 00:41:31;;;;;;;;;;;8.10;99.90;;;;;;7353636;19;111837;-86
2021/12/27 00:43:58;;;;;;;;;;;8.20;99.90;;;;;;7348838;19;109743;-86
2021/12/27 00:46:25;;;;;;;;;;;8.10;99.90;;;;;;7348212;19;109432;-86
2021/12/27 00:48:51;;;;;;;;;;;8.20;99.90;;;;;;7351449;19;112647;-86
2021/12/27 00:51:18;;;;;;;;;;;8.10;99.90;;;;;;7350647;19;109370;-86
2021/12/27 00:53:45;;;;;;;;;;;8.20;99.90;;;;;;7349289;19;110604;-86
2021/12/27 00:56:12;;;;;;;;;;;8.10;99.90;;;;;;7348404;19;112253;-86
2021/12/27 00:58:39;;;;;;;;;;;8.20;99.90;;;;;;7348185;19;109766;-85
2021/12/27 01:01:06;;;;;;;;;;;8.20;99.90;;;;;;7348884;19;111205;-87
2021/12/27 01:03:33;;;;;;;;;;;8.20;99.90;;;;;;7354111;19;112263;-86
2021/12/27 01:06:00;;;;;;;;;;;8.20;99.90;;;;;;7348822;19;111082;-86
2021/12/27 01:08:27;;;;;;;;;;;8.20;99.90;;;;;;7349604;19;111870;-86
2021/12/27 01:11:39;;;;;;;;;;;8.20;99.90;;;;;;7351225;19;109781;-86
2021/12/27 01:13:59;;;;;;;;;;;8.20;99.90;;;;;;7348525;19;113443;-86
2021/12/27 01:16:26;;;;;;;;;;;8.20;99.90;;;;;;7348782;19;112187;-87
2021/12/27 01:18:53;;;;;;;;;;;8.20;99.90;;;;;;7349146;19;109407;-87
2021/12/27 01:21:21;;;;;;;;;;;8.20;99.90;;;;;;7349019;19;109579;-87
2021/12/27 01:23:49;;;;;;;;;;;8.10;99.90;;;;;;7353257;19;111905;-86
2021/12/27 01:26:16;;;;;;;;;;;8.10;99.90;;;;;;7347856;19;110767;-87
2021/12/27 01:28:44;;;;;;;;;;;8.10;99.90;;;;;;7347741;19;110217;-86
2021/12/27 01:31:11;;;;;;;;;;;8.10;99.90;;;;;;7347926;19;109604;-87
2021/12/27 01:33:38;;;;;;;;;;;8.10;99.90;;;;;;7347911;19;109605;-87
2021/12/27 01:36:06;;;;;;;;;;;8.10;99.90;;;;;;7346493;19;111696;-86
2021/12/27 01:38:37;;;;;;;;;;;8.10;99.90;;;;;;7348013;19;109357;-88
2021/12/27 01:41:05;;;;;;;;;;;8.10;99.90;;;;;;7346611;19;111159;-88
2021/12/27 01:43:33;;;;;;;;;;;8.10;99.90;;;;;;7349784;19;110260;-87
2021/12/27 01:46:20;;;;;;;;;;;8.10;99.90;;;;;;7349863;19;109927;-86
2021/12/27 01:48:54;;;;;;;;;;;8.10;99.90;;;;;;7349091;19;114805;-87
2021/12/27 01:51:23;;;;;;;;;;;8.10;99.90;;;;;;7347517;19;109395;-87
2021/12/27 01:53:50;;;;;;;;;;;8.10;99.90;;;;;;7348452;19;112332;-86
2021/12/27 01:56:20;;;;;;;;;;;8.10;99.90;;;;;;7347671;19;111156;-86
2021/12/27 01:58:48;;;;;;;;;;;8.10;99.90;;;;;;7346520;19;109266;-86
2021/12/27 02:01:16;;;;;;;;;;;8.10;99.90;;;;;;7349697;19;111135;-86
2021/12/27 02:03:43;;;;;;;;;;;8.10;99.90;;;;;;7347504;19;112302;-85
2021/12/27 02:06:12;;;;;;;;;;;8.20;99.90;;;;;;7345247;19;109476;-87
2021/12/27 02:08:41;;;;;;;;;;;8.10;99.90;;;;;;7350561;19;111084;-88
2021/12/27 02:11:09;;;;;;;;;;;8.20;99.90;;;;;;7346519;19;109400;-87
2021/12/27 02:13:42;;;;;;;;;;;8.20;99.90;;;;;;7346427;19;109604;-86
2021/12/27 02:16:13;;;;;;;;;;;8.20;99.90;;;;;;7347443;19;111553;-86
2021/12/27 02:18:40;;;;;;;;;;;8.20;99.90;;;;;;7345749;19;109525;-87
2021/12/27 02:21:07;;;;;;;;;;;8.20;99.90;;;;;;7346963;19;112390;-88
2021/12/27 02:23:37;;;;;;;;;;;8.20;99.90;;;;;;7347435;19;112396;-85
2021/12/27 02:26:04;;;;;;;;;;;8.20;99.90;;;;;;7345553;19;109307;-86
2021/12/27 02:28:31;;;;;;;;;;;8.10;99.90;;;;;;7348668;19;110650;-87
2021/12/27 02:30:58;;;;;;;;;;;8.10;99.90;;;;;;7350731;19;110464;-86
2021/12/27 02:33:25;;;;;;;;;;;8.10;99.90;;;;;;7345995;19;110460;-86
2021/12/27 02:35:53;;;;;;;;;;;8.00;99.90;;;;;;7346170;19;115528;-87
2021/12/27 02:38:22;;;;;;;;;;;8.10;99.90;;;;;;7343799;19;109437;-86
2021/12/27 02:40:51;;;;;;;;;;;8.00;99.90;;;;;;7347902;19;110652;-87
2021/12/27 02:43:19;;;;;;;;;;;8.00;99.90;;;;;;7344843;19;114047;-88
2021/12/27 02:45:51;;;;;;;;;;;8.00;99.90;;;;;;7344458;19;109391;-86
2021/12/27 02:48:19;;;;;;;;;;;8.00;99.90;;;;;;7345673;19;111294;-86
2021/12/27 02:50:46;;;;;;;;;;;8.00;99.90;;;;;;7346092;19;114087;-87
2021/12/27 02:53:13;;;;;;;;;;;7.90;99.90;;;;;;7350711;19;109477;-87
2021/12/27 02:55:41;;;;;;;;;;;7.90;99.90;;;;;;7345428;19;114742;-87
2021/12/27 02:58:08;;;;;;;;;;;7.90;99.90;;;;;;7344805;19;109441;-86
2021/12/27 03:00:51;;;;;;;;;;;8.00;99.90;;;;;;7345933;19;110945;-86
2021/12/27 03:03:19;;;;;;;;;;;8.00;99.90;;;;;;7345142;19;113414;-86
2021/12/27 03:05:46;;;;;;;;;;;8.00;99.90;;;;;;7344288;19;109661;-88
2021/12/27 03:08:14;;;;;;;;;;;8.00;99.90;;;;;;7345443;19;111050;-87
2021/12/27 03:10:42;;;;;;;;;;;8.00;99.90;;;;;;7343284;19;114663;-87
2021/12/27 03:13:14;;;;;;;;;;;8.00;99.90;;;;;;7345800;19;109380;-85
2021/12/27 03:15:41;;;;;;;;;;;8.00;99.90;;;;;;7350105;19;109183;-86
2021/12/27 03:18:08;;;;;;;;;;;8.00;99.90;;;;;;7346754;19;109710;-87
2021/12/27 03:20:35;;;;;;;;;;;8.00;99.90;;;;;;7343144;19;110856;-88
2021/12/27 03:23:02;;;;;;;;;;;8.00;99.90;;;;;;7345452;19;111956;-85
2021/12/27 03:25:29;;;;;;;;;;;7.90;99.90;;;;;;7342334;19;109557;-86
2021/12/27 03:27:56;;;;;;;;;;;8.00;99.90;;;;;;7345244;19;113463;-86
2021/12/27 03:30:24;;;;;;;;;;;8.00;99.90;;;;;;7343873;19;115562;-85
2021/12/27 03:32:51;;;;;;;;;;;7.90;99.90;;;;;;7343608;19;109348;-87
2021/12/27 03:35:25;;;;;;;;;;;7.90;99.90;;;;;;7349767;19;114951;-86
2021/12/27 03:37:54;;;;;;;;;;;7.90;99.90;;;;;;7345749;19;109517;-85
2021/12/27 03:40:22;;;;;;;;;;;7.90;99.90;;;;;;7343651;19;110656;-86
2021/12/27 03:42:52;;;;;;;;;;;7.90;99.90;;;;;;7344047;19;113115;-87
2021/12/27 03:45:20;;;;;;;;;;;7.90;99.90;;;;;;7344391;19;109287;-85
2021/12/27 03:47:48;;;;;;;;;;;8.00;99.90;;;;;;7343952;19;110905;-85
2021/12/27 03:50:15;;;;;;;;;;;8.00;99.90;;;;;;7341902;19;112595;-85
2021/12/27 03:52:43;;;;;;;;;;;8.00;99.90;;;;;;7344730;19;109321;-85
2021/12/27 03:55:10;;;;;;;;;;;8.00;99.90;;;;;;7342682;19;111875;-86
2021/12/27 03:57:40;;;;;;;;;;;8.00;99.90;;;;;;7348568;19;115340;-86
2021/12/27 04:02:50;;;;;;;;;;;8.00;99.90;;;;;;7344483;19;114158;-86
2021/12/27 04:05:18;;;;;;;;;;;8.00;99.90;;;;;;7342587;19;109753;-87
2021/12/27 04:07:48;;;;;;;;;;;8.00;99.90;;;;;;7342965;19;111158;-85
2021/12/27 04:10:15;;;;;;;;;;;8.00;99.90;;;;;;7343284;19;113390;-86
2021/12/27 04:12:42;;;;;;;;;;;8.00;99.90;;;;;;7343496;19;109218;-87
2021/12/27 04:15:09;;;;;;;;;;;8.10;99.90;;;;;;7343193;19;110143;-87
2021/12/27 04:17:36;;;;;;;;;;;8.10;99.90;;;;;;7341276;19;110760;-87
2021/12/27 04:20:04;;;;;;;;;;;8.00;99.90;;;;;;7351009;19;109820;-86
2021/12/27 04:22:33;;;;;;;;;;;8.00;99.90;;;;;;7343662;19;113994;-86
2021/12/27 04:25:13;;;;;;;;;;;8.10;99.90;;;;;;7344535;19;109357;-88
2021/12/27 04:27:39;;;;;;;;;;;8.10;99.90;;;;;;7342450;19;114084;-86
2021/12/27 04:30:07;;;;;;;;;;;8.10;99.90;;;;;;7342874;19;111707;-86
2021/12/27 04:32:34;;;;;;;;;;;8.10;99.90;;;;;;7345152;19;109316;-87
2021/12/27 04:35:01;;;;;;;;;;;8.10;99.90;;;;;;7343164;19;113613;-85
2021/12/27 04:37:31;;;;;;;;;;;8.20;99.90;;;;;;7344344;19;111727;-86
2021/12/27 04:39:58;;;;;;;;;;;8.10;99.90;;;;;;7343641;19;109879;-86
2021/12/27 04:42:26;;;;;;;;;;;8.20;99.90;;;;;;7349946;19;109509;-86
2021/12/27 04:44:53;;;;;;;;;;;8.20;99.90;;;;;;7342963;19;109307;-85
2021/12/27 04:47:23;;;;;;;;;;;8.20;99.90;;;;;;7342064;19;110685;-88
2021/12/27 04:49:50;;;;;;;;;;;8.20;99.90;;;;;;7343340;19;115353;-85
2021/12/27 04:52:17;;;;;;;;;;;8.30;99.90;;;;;;7344421;19;109400;-87
2021/12/27 04:54:44;;;;;;;;;;;8.20;99.90;;;;;;7342030;19;111757;-85
2021/12/27 04:57:11;;;;;;;;;;;8.20;99.90;;;;;;7341162;19;114054;-86
2021/12/27 04:59:37;;;;;;;;;;;8.20;99.90;;;;;;7343646;19;109294;-87
2021/12/27 05:02:04;;;;;;;;;;;8.20;99.90;;;;;;7345816;19;110725;-87
2021/12/27 05:04:31;;;;;;;;;;;8.20;99.90;;;;;;7353305;19;112729;-84
2021/12/27 05:06:58;;;;;;;;;;;8.30;99.90;;;;;;7345683;19;114111;-85
2021/12/27 05:09:25;;;;;;;;;;;8.20;99.90;;;;;;7349410;19;110580;-86
2021/12/27 05:11:52;;;;;;;;;;;8.30;99.90;;;;;;7349212;19;109765;-87
2021/12/27 05:14:19;;;;;;;;;;;8.30;99.90;;;;;;7350886;19;110925;-87
2021/12/27 05:16:47;;;;;;;;;;;8.30;99.90;;;;;;7345909;19;112765;-85
2021/12/27 05:19:15;;;;;;;;;;;8.30;99.90;;;;;;7347698;19;109421;-86
2021/12/27 05:21:42;;;;;;;;;;;8.30;99.90;;;;;;7347652;19;113991;-84
2021/12/27 05:24:09;;;;;;;;;;;8.30;99.90;;;;;;7347547;19;113602;-85
2021/12/27 05:26:36;;;;;;;;;;;8.40;99.90;;;;;;7350781;19;109459;-85
2021/12/27 05:29:04;;;;;;;;;;;8.40;99.90;;;;;;7347405;19;112746;-86
2021/12/27 05:31:31;;;;;;;;;;;8.40;99.90;;;;;;7348557;19;109422;-86
2021/12/27 05:33:58;;;;;;;;;;;8.40;99.90;;;;;;7350208;19;110914;-86
2021/12/27 05:36:25;;;;;;;;;;;8.40;99.90;;;;;;7346796;19;114742;-86
2021/12/27 05:38:52;;;;;;;;;;;8.40;99.90;;;;;;7348910;19;109320;-86
2021/12/27 05:41:19;;;;;;;;;;;8.40;99.90;;;;;;7347732;19;111074;-84
2021/12/27 05:43:45;;;;;;;;;;;8.50;99.90;;;;;;7346324;19;111486;-85
2021/12/27 05:46:12;;;;;;;;;;;8.50;99.90;;;;;;7352109;19;109353;-87
2021/12/27 05:48:39;;;;;;;;;;;8.50;99.90;;;;;;7346031;19;115208;-85
2021/12/27 05:51:06;;;;;;;;;;;8.60;99.90;;;;;;7347690;19;109349;-87
2021/12/27 05:53:33;;;;;;;;;;;8.60;99.90;;;;;;7346487;19;113696;-87
2021/12/27 05:56:00;;;;;;;;;;;8.60;99.90;;;;;;7348158;19;113211;-85
2021/12/27 05:58:27;;;;;;;;;;;8.60;99.90;;;;;;7345701;19;109267;-87
2021/12/27 06:00:54;;;;;;;;;;;8.60;99.90;;;;;;7346944;19;111819;-87
2021/12/27 06:03:21;;;;;;;;;;;8.60;99.90;;;;;;7348262;19;111973;-85
2021/12/27 06:05:48;;;;;;;;;;;8.60;99.90;;;;;;7346177;19;109268;-87
2021/12/27 06:08:15;;;;;;;;;;;8.60;99.90;;;;;;7351567;19;113341;-86
2021/12/27 06:10:42;;;;;;;;;;;8.60;99.90;;;;;;7348695;19;109295;-86
2021/12/27 06:13:09;;;;;;;;;;;8.60;99.90;;;;;;7343891;19;111246;-84
2021/12/27 06:15:35;;;;;;;;;;;8.70;99.90;;;;;;7344734;19;112404;-86
2021/12/27 06:18:02;;;;;;;;;;;8.70;99.90;;;;;;7348537;19;109831;-86
2021/12/27 06:20:30;;;;;;;;;;;8.70;99.90;;;;;;7348491;19;109584;-87
2021/12/27 06:22:57;;;;;;;;;;;8.70;99.90;;;;;;7347237;19;114461;-86
2021/12/27 06:25:25;;;;;;;;;;;8.70;99.90;;;;;;7344607;19;109373;-85
2021/12/27 06:27:52;;;;;;;;;;;8.70;99.90;;;;;;7339342;19;109419;-85
2021/12/27 06:30:20;;;;;;;;;;;8.70;99.90;;;;;;7350073;19;112305;-85
2021/12/27 06:32:47;;;;;;;;;;;8.70;99.90;;;;;;7344722;19;111559;-85
2021/12/27 06:35:15;;;;;;;;;;;8.70;99.90;;;;;;7345614;19;112491;-85
2021/12/27 06:37:42;;;;;;;;;;;8.70;99.90;;;;;;7346495;19;109618;-84
2021/12/27 06:40:10;;;;;;;;;;;8.70;99.90;;;;;;7346111;19;110835;-84
2021/12/27 06:42:37;;;;;;;;;;;8.70;99.90;;;;;;7345357;19;112386;-85
2021/12/27 06:45:05;;;;;;;;;;;8.70;99.90;;;;;;7346682;19;109622;-84
2021/12/27 06:47:32;;;;;;;;;;;8.70;99.90;;;;;;7345093;19;109561;-84
2021/12/27 06:49:59;;;;;;;;;;;8.70;99.90;;;;;;7344935;19;110575;-85
2021/12/27 06:52:26;;;;;;;;;;;8.70;99.90;;;;;;7351454;19;109286;-85
2021/12/27 06:54:53;;;;;;;;;;;8.70;99.90;;;;;;7347101;19;112138;-85
2021/12/27 06:57:28;;;;;;;;;;;8.80;99.90;;;;;;7345904;19;109339;-85
2021/12/27 06:59:56;;;;;;;;;;;8.70;99.90;;;;;;7346307;19;110919;-85
2021/12/27 07:02:24;;;;;;;;;;;8.70;99.90;;;;;;7345453;19;115891;-85
2021/12/27 07:04:51;;;;;;;;;;;8.70;99.90;;;;;;7345404;19;109441;-85
2021/12/27 07:07:19;;;;;;;;;;;8.70;99.90;;;;;;7342669;19;112784;-86
2021/12/27 07:09:46;;;;;;;;;;;8.70;99.90;;;;;;7344168;19;112277;-86
2021/12/27 07:12:13;;;;;;;;;;;8.60;99.90;;;;;;7344145;19;109327;-86
2021/12/27 07:14:40;;;;;;;;;;;8.60;99.90;;;;;;7350416;19;110978;-86
2021/12/27 07:17:07;;;;;;;;;;;8.50;99.90;;;;;;7344967;19;109807;-85
2021/12/27 07:19:34;;;;;;;;;;;8.40;99.90;;;;;;7345233;19;110901;-85
2021/12/27 07:22:03;;;;;;;;;;;8.30;99.90;;;;;;7344484;19;110496;-85
2021/12/27 07:24:30;;;;;;;;;;;8.30;99.90;;;;;;7343255;19;109429;-85
2021/12/27 07:26:57;;;;;;;;;;;8.20;99.90;;;;;;7342999;19;112150;-85
2021/12/27 07:29:24;;;;;;;;;;;8.20;99.90;;;;;;7342778;19;114038;-86
2021/12/27 07:31:51;;;;;;;;;;;8.20;99.90;;;;;;7344738;19;109970;-86
2021/12/27 07:34:19;;;;;;;;;;;8.20;99.90;;;;;;7348752;19;111169;-85
2021/12/27 07:36:46;;;;;;;;;;;8.10;99.90;;;;;;7346200;19;109807;-85
2021/12/27 07:39:14;;;;;;;;;;;8.00;99.90;;;;;;7344237;19;109739;-86
2021/12/27 07:41:41;;;;;;;;;;;8.00;99.90;;;;;;7344843;19;112325;-85
2021/12/27 07:44:08;;;;;;;;;;;8.00;99.90;;;;;;7345368;19;109299;-85
2021/12/27 07:46:38;;;;;;;;;;;8.00;99.90;;;;;;7344313;19;111577;-85
2021/12/27 07:49:05;;;;;;;;;;;7.90;99.90;;;;;;7343291;19;111746;-86
2021/12/27 07:51:32;;;;;;;;;;;7.90;99.90;;;;;;7344302;19;109295;-86
2021/12/27 07:53:59;;;;;;;;;;;7.90;99.90;;;;;;7344094;19;110866;-85
2021/12/27 07:56:26;;;;;;;;;;;7.80;99.90;;;;;;7350936;19;112120;-86
2021/12/27 07:58:53;;;;;;;;;;;7.80;99.90;;;;;;7345519;19;110718;-86
2021/12/27 08:01:19;;;;;;;;;;;7.80;99.90;;;;;;7343160;19;111374;-85
2021/12/27 08:03:47;;;;;;;;;;;7.70;99.90;;;;;;7344226;19;109403;-85
2021/12/27 08:06:14;;;;;;;;;;;7.70;99.90;;;;;;7343404;19;111476;-85
2021/12/27 08:08:40;;;;;;;;;;;7.70;99.90;;;;;;7345188;19;111851;-85
2021/12/27 08:11:07;;;;;;;;;;;7.70;99.90;;;;;;7342919;19;110578;-85
2021/12/27 08:13:35;;;;;;;;;;;7.70;99.90;;;;;;7344890;19;110943;-85
2021/12/27 08:16:02;;;;;;;;;;;7.70;99.90;;;;;;7342088;19;112216;-85
2021/12/27 08:18:29;;;;;;;;;;;7.70;99.90;;;;;;7350035;19;109424;-85
2021/12/27 08:20:56;;;;;;;;;;;7.70;99.90;;;;;;7342979;19;111976;-85
2021/12/27 08:23:23;;;;;;;;;;;7.80;99.90;;;;;;7342682;19;109492;-86
2021/12/27 08:25:50;;;;;;;;;;;7.80;99.90;;;;;;7344632;19;111304;-86
2021/12/27 08:28:17;;;;;;;;;;;7.80;99.90;;;;;;7339553;19;110992;-86
2021/12/27 08:30:44;;;;;;;;;;;7.80;99.90;;;;;;7345087;19;109331;-86
2021/12/27 08:33:11;;;;;;;;;;;7.80;99.90;;;;;;7342629;19;111159;-85
2021/12/27 08:35:40;;;;;;;;;;;7.90;99.90;;;;;;7344795;19;112217;-85
2021/12/27 08:38:07;;;;;;;;;;;7.90;99.90;;;;;;7348768;19;109307;-86
2021/12/27 08:40:34;;;;;;;;;;;8.00;99.90;;;;;;7357248;19;111040;-85
2021/12/27 08:43:02;;;;;;;;;;;8.00;99.90;;;;;;7348799;19;109373;-85
2021/12/27 08:45:29;;;;;;;;;;;8.00;99.90;;;;;;7349331;19;110706;-85
2021/12/27 08:47:56;;;;;;;;;;;8.10;99.90;;;;;;7346911;19;112112;-86
2021/12/27 08:50:23;;;;;;;;;;;8.10;99.90;;;;;;7351117;19;109275;-85
2021/12/27 08:52:50;;;;;;;;;;;8.10;99.90;;;;;;7346892;19;109384;-86
2021/12/27 08:55:17;;;;;;;;;;;8.10;99.90;;;;;;7346403;19;112078;-86
2021/12/27 08:57:44;;;;;;;;;;;8.20;99.90;;;;;;7350749;19;109268;-86
2021/12/27 09:00:14;;;;;;;;;;;8.20;99.90;;;;;;7350323;19;111059;-86
2021/12/27 09:02:42;;;;;;;;;;;8.20;99.90;;;;;;7355065;19;111901;-86
2021/12/27 09:05:09;;;;;;;;;;;8.20;99.90;;;;;;7349923;19;111052;-85
2021/12/27 09:07:36;;;;;;;;;;;8.20;99.90;;;;;;7349745;19;112005;-86
2021/12/27 09:10:04;;;;;;;;;;;8.30;99.90;;;;;;7350127;19;109738;-86
2021/12/27 09:12:31;;;;;;;;;;;8.30;99.90;;;;;;7345222;19;109559;-86
2021/12/27 09:14:58;;;;;;;;;;;8.30;99.90;;;;;;7339907;19;110897;-87
2021/12/27 09:17:25;;;;;;;;;;;8.40;99.90;;;;;;7351002;19;109370;-87
2021/12/27 09:19:51;;;;;;;;;;;8.40;99.90;;;;;;7348549;19;110900;-87
2021/12/27 09:22:18;;;;;;;;;;;8.40;99.90;;;;;;7349908;19;112481;-85
2021/12/27 09:24:46;;;;;;;;;;;8.40;99.90;;;;;;7353914;19;109258;-86
2021/12/27 09:27:13;;;;;;;;;;;8.40;99.90;;;;;;7346774;19;112227;-85
2021/12/27 09:29:42;;;;;;;;;;;8.40;99.90;;;;;;7349189;19;109449;-85
2021/12/27 09:32:10;;;;;;;;;;;8.40;99.90;;;;;;7349081;19;111748;-85
2021/12/27 09:34:37;;;;;;;;;;;8.50;99.90;;;;;;7347743;19;112895;-85
2021/12/27 09:37:05;;;;;;;;;;;8.50;99.90;;;;;;7349986;19;109858;-85
2021/12/27 09:39:32;;;;;;;;;;;8.50;99.90;;;;;;7351214;19;111032;-85
2021/12/27 09:42:00;;;;;;;;;;;8.60;99.90;;;;;;7348140;19;112631;-85
2021/12/27 09:44:27;;;;;;;;;;;8.60;99.90;;;;;;7356339;19;109315;-85
2021/12/27 09:46:53;;;;;;;;;;;8.60;99.90;;;;;;7349039;19;113190;-85
2021/12/27 09:49:22;;;;;;;;;;;8.60;99.90;;;;;;7348136;19;109831;-85
2021/12/27 09:51:50;;;;;;;;;;;8.70;99.90;;;;;;7348939;19;110073;-85
2021/12/27 09:54:17;;;;;;;;;;;8.70;99.90;;;;;;7348911;19;112807;-85
2021/12/27 09:56:45;;;;;;;;;;;8.70;99.90;;;;;;7347470;19;109323;-85
2021/12/27 09:59:12;;;;;;;;;;;8.70;99.90;;;;;;7347912;19;111218;-85
2021/12/27 10:01:39;;;;;;;;;;;8.80;99.90;;;;;;7349848;19;111959;-84
2021/12/27 10:04:06;;;;;;;;;;;8.90;99.90;;;;;;7348393;19;109340;-85
2021/12/27 10:06:33;;;;;;;;;;;8.90;99.90;;;;;;7354739;19;111156;-85
2021/12/27 10:09:02;;;;;;;;;;;8.90;99.90;;;;;;7345305;19;109313;-85
2021/12/27 10:11:31;;;;;;;;;;;9.00;99.90;;;;;;7348675;19;110980;-85
2021/12/27 10:14:04;;;;;;;;;;;9.00;99.90;;;;;;7345864;19;111795;-85
2021/12/27 10:16:33;;;;;;;;;;;9.10;99.90;;;;;;7347212;19;109417;-86
2021/12/27 10:19:01;;;;;;;;;;;9.10;99.90;;;;;;7346956;19;110690;-85
2021/12/27 10:21:28;;;;;;;;;;;9.10;99.90;;;;;;7347470;19;113028;-85
2021/12/27 10:24:04;;;;;;;;;;;9.20;99.90;;;;;;7348183;19;110126;-85
2021/12/27 10:26:32;;;;;;;;;;;9.20;99.90;;;;;;7347103;19;111204;-87
2021/12/27 10:29:26;;;;;;;;;;;9.20;99.90;;;;;;7349695;19;112379;-87
2021/12/27 10:31:55;;;;;;;;;;;9.20;99.90;;;;;;7346557;19;111600;-85
2021/12/27 10:34:23;;;;;;;;;;;9.30;99.90;;;;;;7347983;19;112087;-87
2021/12/27 10:37:08;;;;;;;;;;;9.30;99.90;;;;;;7345735;19;109621;-85
2021/12/27 10:39:47;;;;;;;;;;;9.40;99.90;;;;;;7346973;19;110941;-86
2021/12/27 10:42:25;;;;;;;;;;;9.40;99.90;;;;;;7347568;19;111876;-85
2021/12/27 10:44:54;;;;;;;;;;;9.50;99.90;;;;;;7347712;19;109355;-85
2021/12/27 10:47:23;;;;;;;;;;;9.60;99.90;;;;;;7347262;19;110710;-85
2021/12/27 10:49:50;;;;;;;;;;;9.60;99.90;;;;;;7346735;19;112121;-85
2021/12/27 10:52:17;;;;;;;;;;;9.60;99.90;;;;;;7350956;19;109354;-85
2021/12/27 10:54:44;;;;;;;;;;;9.70;99.90;;;;;;7343978;19;112332;-88
2021/12/27 10:57:12;;;;;;;;;;;9.70;99.90;;;;;;7348179;19;109247;-88
2021/12/27 10:59:39;;;;;;;;;;;9.70;99.90;;;;;;7343419;19;109326;-88
2021/12/27 11:02:08;;;;;;;;;;;9.80;99.90;;;;;;7347005;19;112257;-87
2021/12/27 11:04:36;;;;;;;;;;;9.80;99.90;;;;;;7344655;19;109766;-87
2021/12/27 11:07:06;;;;;;;;;;;9.90;99.90;;;;;;7346118;19;113759;-87
2021/12/27 11:09:33;;;;;;;;;;;9.90;99.90;;;;;;7342011;19;112847;-87
2021/12/27 11:12:01;;;;;;;;;;;10.00;99.90;;;;;;7347248;19;109329;-87
2021/12/27 11:14:28;;;;;;;;;;;10.00;99.90;;;;;;7351759;19;111032;-88
2021/12/27 11:16:55;;;;;;;;;;;10.10;99.90;;;;;;7344504;19;109413;-87
2021/12/27 11:19:22;;;;;;;;;;;10.10;99.90;;;;;;7344938;19;110828;-86
2021/12/27 11:21:49;;;;;;;;;;;10.20;99.90;;;;;;7343483;19;112361;-86
2021/12/27 11:24:18;;;;;;;;;;;10.20;99.90;;;;;;7344903;19;109381;-86
2021/12/27 11:26:47;;;;;;;;;;;10.20;99.90;;;;;;7343612;19;113395;-86
2021/12/27 11:29:15;;;;;;;;;;;10.30;99.90;;;;;;7342983;19;112127;-86
2021/12/27 11:31:43;;;;;;;;;;;10.30;99.90;;;;;;7344485;19;109336;-86
2021/12/27 11:34:12;;;;;;;;;;;10.30;99.90;;;;;;7342767;19;111140;-85
2021/12/27 11:36:48;;;;;;;;;;;10.30;99.90;;;;;;7347785;19;112470;-86
2021/12/27 11:39:42;;;;;;;;;;;10.30;99.90;;;;;;7342967;19;111353;-86
2021/12/27 11:42:10;;;;;;;;;;;10.40;99.90;;;;;;7344344;19;111717;-86
2021/12/27 11:44:44;;;;;;;;;;;10.40;99.90;;;;;;7342811;19;109682;-86
2021/12/27 11:47:12;;;;;;;;;;;10.50;99.90;;;;;;7345094;19;111138;-86
2021/12/27 11:49:45;;;;;;;;;;;10.40;99.90;;;;;;7342393;19;112197;-86
2021/12/27 11:52:15;;;;;;;;;;;10.50;99.90;;;;;;7344992;19;109413;-86
2021/12/27 11:54:50;;;;;;;;;;;10.50;99.90;;;;;;7341887;19;109858;-87
2021/12/27 11:57:49;;;;;;;;;;;10.60;99.90;;;;;;7350294;19;112493;-86
2021/12/27 12:00:16;;;;;;;;;;;10.60;99.90;;;;;;7341447;19;111486;-85
2021/12/27 12:02:47;;;;;;;;;;;10.70;99.90;;;;;;7342238;19;112260;-86
2021/12/27 12:05:32;;;;;;;;;;;10.70;99.90;;;;;;7343805;19;109907;-86
2021/12/27 12:07:59;;;;;;;;;;;10.70;99.90;;;;;;7343560;19;111320;-86
2021/12/27 12:10:26;;;;;;;;;;;10.60;99.90;;;;;;7341717;19;112397;-86
2021/12/27 12:13:12;;;;;;;;;;;10.60;99.90;;;;;;7348959;19;109339;-86
2021/12/27 12:15:53;;;;;;;;;;;10.60;99.90;;;;;;7351266;19;110561;-87
2021/12/27 12:18:20;;;;;;;;;;;10.60;99.90;;;;;;7346712;19;112916;-87
2021/12/27 12:20:47;;;;;;;;;;;10.60;99.90;;;;;;7348461;19;109560;-87
2021/12/27 12:23:14;;;;;;;;;;;10.60;99.90;;;;;;7349270;19;112357;-86
2021/12/27 12:25:41;;;;;;;;;;;10.70;99.90;;;;;;7350218;19;109623;-87
2021/12/27 12:28:09;;;;;;;;;;;10.70;99.90;;;;;;7349967;19;109491;-86
2021/12/27 12:30:37;;;;;;;;;;;10.70;99.90;;;;;;7349158;19;112842;-86
2021/12/27 12:33:06;;;;;;;;;;;10.70;99.90;;;;;;7351294;19;109324;-87
2021/12/27 12:35:32;;;;;;;;;;;10.70;99.90;;;;;;7349756;19;111053;-87
2021/12/27 12:38:08;;;;;;;;;;;10.70;99.90;;;;;;7351446;19;111868;-87
2021/12/27 12:40:35;;;;;;;;;;;10.80;99.90;;;;;;7348805;19;109369;-87
2021/12/27 12:43:02;;;;;;;;;;;10.80;99.90;;;;;;7354160;19;109355;-87
2021/12/27 12:45:30;;;;;;;;;;;10.90;99.90;;;;;;7350593;19;109430;-87
2021/12/27 12:47:57;;;;;;;;;;;10.90;99.90;;;;;;7350162;19;110636;-86
2021/12/27 12:50:24;;;;;;;;;;;11.00;99.90;;;;;;7345231;19;112061;-87
2021/12/27 12:52:53;;;;;;;;;;;11.00;99.90;;;;;;7348423;19;109319;-87
2021/12/27 12:55:21;;;;;;;;;;;11.00;99.90;;;;;;7349359;19;113406;-87
2021/12/27 12:57:50;;;;;;;;;;;11.00;99.90;;;;;;7347666;19;112027;-87
2021/12/27 13:00:21;;;;;;;;;;;11.10;99.90;;;;;;7350962;19;109273;-87
2021/12/27 13:02:48;;;;;;;;;;;11.10;99.90;;;;;;7350977;19;111235;-87
2021/12/27 13:05:15;;;;;;;;;;;11.10;99.90;;;;;;7355776;19;111980;-87
2021/12/27 13:07:49;;;;;;;;;;;11.10;99.90;;;;;;7351801;19;111358;-87
2021/12/27 13:10:33;;;;;;;;;;;11.10;99.90;;;;;;7345137;19;110473;-86
2021/12/27 13:13:00;;;;;;;;;;;11.10;99.90;;;;;;7351281;19;109978;-87
2021/12/27 13:15:34;;;;;;;;;;;11.10;99.90;;;;;;7350550;19;111314;-87
2021/12/27 13:18:17;;;;;;;;;;;11.10;99.90;;;;;;7349207;19;112285;-87
2021/12/27 13:20:47;;;;;;;;;;;11.10;99.90;;;;;;7350597;19;109835;-87
2021/12/27 13:23:15;;;;;;;;;;;11.10;99.90;;;;;;7348811;19;110611;-86
2021/12/27 13:25:52;;;;;;;;;;;11.00;99.90;;;;;;7348166;19;113173;-86
2021/12/27 13:28:26;;;;;;;;;;;11.10;99.90;;;;;;7353495;19;109503;-86
2021/12/27 13:31:02;;;;;;;;;;;11.00;99.90;;;;;;7350094;19;112211;-87
2021/12/27 13:33:48;;;;;;;;;;;11.00;99.90;;;;;;7349436;19;109772;-87
2021/12/27 13:36:21;;;;;;;;;;;11.10;99.90;;;;;;7347822;19;110858;-86
2021/12/27 13:38:58;;;;;;;;;;;11.10;99.90;;;;;;7349483;19;112110;-87
2021/12/27 13:41:30;;;;;;;;;;;11.10;99.90;;;;;;7348983;19;109339;-87
2021/12/27 13:43:59;;;;;;;;;;;11.10;99.90;;;;;;7348305;19;109600;-87
2021/12/27 13:46:28;;;;;;;;;;;11.10;99.90;;;;;;7348861;19;113204;-87
2021/12/27 13:48:56;;;;;;;;;;;11.10;99.90;;;;;;7347338;19;109279;-87
2021/12/27 13:51:25;;;;;;;;;;;11.10;99.90;;;;;;7352503;19;111206;-87
2021/12/27 13:54:13;;;;;;;;;;;11.10;99.90;;;;;;7347621;19;109455;-87
2021/12/27 13:56:42;;;;;;;;;;;11.10;99.90;;;;;;7348492;19;111071;-87
2021/12/27 13:59:16;;;;;;;;;;;11.20;99.90;;;;;;7346159;19;112054;-86
2021/12/27 14:01:54;;;;;;;;;;;11.10;99.90;;;;;;7348671;19;109355;-87
2021/12/27 14:04:26;;;;;;;;;;;11.20;99.90;;;;;;7348048;19;110960;-87
2021/12/27 14:06:55;;;;;;;;;;;11.20;99.90;;;;;;7347377;19;112700;-87
2021/12/27 14:09:23;;;;;;;;;;;11.20;99.90;;;;;;7346463;19;109526;-87
2021/12/27 14:11:54;;;;;;;;;;;11.20;99.90;;;;;;7354294;19;111204;-87
2021/12/27 14:14:40;;;;;;;;;;;11.10;99.90;;;;;;7347320;19;109277;-87
2021/12/27 14:17:16;;;;;;;;;;;11.20;99.90;;;;;;7346504;19;111227;-87
2021/12/27 14:20:01;;;;;;;;;;;11.20;99.90;;;;;;7348549;19;112434;-87
2021/12/27 14:22:41;;;;;;;;;;;11.20;99.90;;;;;;7348940;19;109273;-87
2021/12/27 14:25:09;;;;;;;;;;;11.20;99.90;;;;;;7347397;19;112450;-87
2021/12/27 14:27:45;;;;;;;;;;;11.20;99.90;;;;;;7347492;19;115635;-87